First Ferry Viii — VRS4306 — position and weather

sailwx.info

Track history (hours):
 
Tides and Currents Weather Stations Pressure Air Temp Water Temp Dewpoint Dewpoint Depression Visibility Wind Speed Wind Dir Waves Ship Positions

First Ferry Viii

Last reported at 2015-Feb-28 05:34 UTC. Time now 2015-Feb-28 06:58 UTC.
Position N 22°17' E 114°10'.

Length 36 m; draft 1.8 m.

Type: High speed craft. MMSI: 477995030.

Date/timePositionNaut miles runAvg speedWind from/ knotsBaromVisibWave heightAir tempDewpointWater temp
2015-Feb-28 05:34N 22°17' E 114°10'0 0.0
2015-Feb-28 03:33N 22°17' E 114°10'1 0.9
2015-Feb-28 02:33N 22°17' E 114°10'1 0.9
2015-Feb-28 01:33N 22°17' E 114°10'5 3.6
2015-Feb-28 00:17N 22°16' E 114°05'5 6.3
2015-Feb-27 23:34N 22°17' E 114°09'0 0.0
2015-Feb-27 16:33N 22°17' E 114°10'5 4.4
2015-Feb-27 15:20N 22°16' E 114°04'5 6.9
2015-Feb-27 14:34N 22°17' E 114°10'5 4.1
2015-Feb-27 13:19N 22°16' E 114°04'4 5.7
2015-Feb-27 12:33N 22°18' E 114°09'1 0.3
2015-Feb-27 09:33N 22°17' E 114°10'6 3.8
2015-Feb-27 08:05N 22°15' E 114°04'610.5
2015-Feb-27 07:33N 22°17' E 114°10'0 0.0
2015-Feb-27 05:33N 22°17' E 114°10'3 2.6
2015-Feb-27 04:33N 22°19' E 114°12'0 0.0
2015-Feb-27 03:33N 22°19' E 114°12'0 0.0
2015-Feb-27 02:33N 22°19' E 114°12'3 2.7
2015-Feb-27 01:33N 22°20' E 114°09'2 1.1
2015-Feb-26 23:34N 22°17' E 114°09'0 0.0
2015-Feb-26 16:33N 22°18' E 114°09'4 3.2
2015-Feb-26 15:17N 22°17' E 114°05'4 5.7
2015-Feb-26 14:33N 22°17' E 114°10'5 4.3
2015-Feb-26 13:21N 22°16' E 114°04'4 4.8
2015-Feb-26 12:33N 22°17' E 114°08'1 0.5
2015-Feb-26 09:33N 22°17' E 114°10'0 0.0
2015-Feb-26 07:30N 22°17' E 114°10'4 3.2
2015-Feb-26 06:07N 22°16' E 114°05'4 8.1
2015-Feb-26 05:33N 22°17' E 114°10'2 2.4
2015-Feb-26 04:34N 22°19' E 114°12'0 0.0
2015-Feb-26 03:34N 22°19' E 114°12'0 0.0
2015-Feb-26 02:34N 22°19' E 114°12'3 2.7
2015-Feb-26 01:33N 22°17' E 114°09'4 3.3
2015-Feb-26 00:18N 22°16' E 114°05'4 6.0
2015-Feb-25 23:34N 22°17' E 114°10'0 0.0
2015-Feb-25 16:33N 22°17' E 114°09'5 4.1
2015-Feb-25 15:20N 22°16' E 114°04'5 6.7
2015-Feb-25 14:34N 22°17' E 114°10'6 4.6
2015-Feb-25 13:21N 22°15' E 114°04'4 5.2
2015-Feb-25 12:33N 22°18' E 114°08'2 0.5
2015-Feb-25 09:32N 22°17' E 114°10'0 0.0
2015-Feb-25 07:33N 22°17' E 114°10'4 3.0
2015-Feb-25 06:05N 22°16' E 114°05'5 8.7
2015-Feb-25 05:33N 22°17' E 114°10'3 2.5
2015-Feb-25 04:33N 22°19' E 114°12'0 0.0
2015-Feb-25 03:33N 22°19' E 114°12'0 0.0
2015-Feb-25 02:33N 22°19' E 114°12'3 2.9
2015-Feb-25 01:33N 22°20' E 114°09'2 1.2
2015-Feb-24 23:34N 22°17' E 114°10'0 0.0
2015-Feb-24 16:34N 22°17' E 114°09'5 3.9
2015-Feb-24 15:19N 22°16' E 114°04'5 6.7
2015-Feb-24 14:33N 22°17' E 114°10'3 2.3
2015-Feb-24 13:13N 22°17' E 114°06'3 3.9
2015-Feb-24 12:34N 22°17' E 114°09'1 0.2
2015-Feb-24 09:32N 22°17' E 114°10'0 0.0
2015-Feb-24 07:33N 22°17' E 114°10'0 0.0
2015-Feb-24 05:33N 22°17' E 114°10'2 2.5
2015-Feb-24 04:33N 22°20' E 114°09'0 0.0
2015-Feb-24 03:32N 22°20' E 114°09'0 0.0
2015-Feb-24 02:33N 22°20' E 114°09'0 0.0
2015-Feb-24 01:31N 22°20' E 114°09'2 1.2
2015-Feb-23 23:34N 22°17' E 114°10'0 0.0
2015-Feb-23 16:34N 22°17' E 114°09'6 5.1
2015-Feb-23 15:22N 22°15' E 114°03'6 7.6
2015-Feb-23 14:33N 22°17' E 114°10'5 4.4
2015-Feb-23 13:19N 22°16' E 114°04'4 5.6
2015-Feb-23 12:33N 22°17' E 114°08'1 0.5
2015-Feb-23 09:33N 22°17' E 114°10'5 3.2
2015-Feb-23 08:04N 22°16' E 114°05'5 9.3
2015-Feb-23 07:34N 22°17' E 114°10'0 0.1
2015-Feb-23 05:33N 22°17' E 114°10'2 2.5
2015-Feb-23 04:33N 22°19' E 114°12'0 0.0
2015-Feb-23 03:33N 22°19' E 114°12'0 0.0
2015-Feb-23 02:33N 22°19' E 114°12'3 2.9
2015-Feb-23 01:33N 22°20' E 114°09'2 1.2
2015-Feb-22 23:34N 22°17' E 114°10'0 0.0
2015-Feb-22 16:33N 22°17' E 114°09'6 4.7
2015-Feb-22 15:21N 22°15' E 114°04'6 7.3
2015-Feb-22 14:34N 22°17' E 114°10'5 4.4
2015-Feb-22 13:20N 22°16' E 114°04'5 6.8
2015-Feb-22 12:34N 22°17' E 114°09'6 1.7
2015-Feb-22 09:20N 22°15' E 114°04'6 7.1
2015-Feb-22 08:33N 22°17' E 114°10'7 4.8
2015-Feb-22 07:11N 22°15' E 114°03'710.5
2015-Feb-22 06:33N 22°17' E 114°10'6 4.8
2015-Feb-22 05:13N 22°15' E 114°03'6 9.9
2015-Feb-22 04:34N 22°17' E 114°10'6 4.1
2015-Feb-22 03:12N 22°15' E 114°04'5 8.0
2015-Feb-22 02:34N 22°18' E 114°09'5 3.8
2015-Feb-22 01:21N 22°16' E 114°04'5 6.0
2015-Feb-22 00:33N 22°18' E 114°09'1 0.6
2015-Feb-21 23:33N 22°17' E 114°10'0 0.0
2015-Feb-21 16:34N 22°17' E 114°10'5 4.4
2015-Feb-21 15:21N 22°16' E 114°04'5 6.6
2015-Feb-21 14:33N 22°17' E 114°10'6 5.2
2015-Feb-21 13:22N 22°15' E 114°03'6 7.5
2015-Feb-21 12:34N 22°17' E 114°10'5 4.2
2015-Feb-21 11:19N 22°16' E 114°04'5 6.7
2015-Feb-21 10:33N 22°17' E 114°10'5 4.0
2015-Feb-21 09:18N 22°16' E 114°04'2 2.4
2015-Feb-21 08:33N 22°17' E 114°06'2 1.5
2015-Feb-21 07:06N 22°16' E 114°04'510.0
2015-Feb-21 06:33N 22°17' E 114°10'5 3.5
2015-Feb-21 05:09N 22°16' E 114°04'5 8.3
2015-Feb-21 04:33N 22°17' E 114°09'5 3.6
2015-Feb-21 03:08N 22°16' E 114°04'5 9.1
2015-Feb-21 02:34N 22°17' E 114°09'6 4.6
2015-Feb-21 01:20N 22°15' E 114°04'6 7.5
2015-Feb-21 00:33N 22°19' E 114°09'1 1.4
2015-Feb-20 23:34N 22°17' E 114°10'0 0.0
2015-Feb-20 16:34N 22°18' E 114°09'5 4.3
2015-Feb-20 15:20N 22°16' E 114°04'5 6.8
2015-Feb-20 14:33N 22°17' E 114°10'6 5.0
2015-Feb-20 13:24N 22°15' E 114°04'6 6.7
2015-Feb-20 12:33N 22°17' E 114°10'0 0.0
2015-Feb-20 11:33N 22°17' E 114°10'0 0.0
2015-Feb-20 09:33N 22°17' E 114°10'6 2.3
2015-Feb-20 07:09N 22°15' E 114°04'6 9.3
2015-Feb-20 06:33N 22°17' E 114°10'6 3.9
2015-Feb-20 05:08N 22°15' E 114°04'610.0
2015-Feb-20 04:33N 22°17' E 114°10'5 3.6
2015-Feb-20 03:08N 22°16' E 114°04'6 9.7
2015-Feb-20 02:33N 22°17' E 114°10'2 2.2
2015-Feb-20 01:33N 22°19' E 114°12'0 0.2
2015-Feb-20 00:33N 22°19' E 114°12'2 2.5
2015-Feb-19 23:34N 22°17' E 114°10'0 0.0
2015-Feb-19 16:34N 22°18' E 114°09'5 4.2
2015-Feb-19 15:19N 22°16' E 114°04'5 6.9
2015-Feb-19 14:33N 22°17' E 114°10'5 4.3
2015-Feb-19 13:19N 22°16' E 114°04'5 5.9
2015-Feb-19 12:33N 22°18' E 114°09'4 3.5
2015-Feb-19 11:18N 22°16' E 114°04'7 9.3
2015-Feb-19 10:33N 22°18' E 114°11'1 1.2
2015-Feb-19 09:33N 22°19' E 114°12'3 2.9
2015-Feb-19 08:33N 22°17' E 114°09'6 4.2
2015-Feb-19 07:10N 22°15' E 114°04'6 9.7
2015-Feb-19 06:33N 22°17' E 114°09'6 4.3
2015-Feb-19 05:17N 22°15' E 114°04'5 7.6
2015-Feb-19 04:33N 22°17' E 114°09'6 4.5
2015-Feb-19 03:15N 22°15' E 114°04'6 8.4
2015-Feb-19 02:34N 22°17' E 114°09'6 4.8
2015-Feb-19 01:20N 22°15' E 114°04'6 7.6
2015-Feb-19 00:33N 22°18' E 114°09'1 0.9
2015-Feb-18 23:33N 22°17' E 114°10'0 0.0
2015-Feb-18 16:33N 22°17' E 114°10'6 4.9
2015-Feb-18 15:21N 22°15' E 114°04'6 7.5
2015-Feb-18 14:33N 22°17' E 114°10'5 4.3
2015-Feb-18 13:19N 22°16' E 114°04'5 6.3
2015-Feb-18 12:34N 22°18' E 114°09'1 0.2
2015-Feb-18 09:33N 22°17' E 114°10'0 0.0
2015-Feb-18 07:34N 22°17' E 114°10'6 3.9
2015-Feb-18 06:06N 22°15' E 114°04'  
Track history (hours):
 
Tides and Currents Weather Stations Pressure Air Temp Water Temp Dewpoint Dewpoint Depression Visibility Wind Speed Wind Dir Waves Ship Positions

First Ferry Viii

Last reported at 2015-Feb-28 05:34 UTC. Time now 2015-Feb-28 06:58 UTC.
Position N 22°17' E 114°10'.

Length 36 m; draft 1.8 m.

Type: High speed craft. MMSI: 477995030.

Date/timePositionNaut miles runAvg speedWind from/ knotsBaromVisibWave heightAir tempDewpointWater temp
2015-Feb-28 05:34N 22°17' E 114°10'0 0.0
2015-Feb-28 03:33N 22°17' E 114°10'1 0.9
2015-Feb-28 02:33N 22°17' E 114°10'1 0.9
2015-Feb-28 01:33N 22°17' E 114°10'5 3.6
2015-Feb-28 00:17N 22°16' E 114°05'5 6.3
2015-Feb-27 23:34N 22°17' E 114°09'0 0.0
2015-Feb-27 16:33N 22°17' E 114°10'5 4.4
2015-Feb-27 15:20N 22°16' E 114°04'5 6.9
2015-Feb-27 14:34N 22°17' E 114°10'5 4.1
2015-Feb-27 13:19N 22°16' E 114°04'4 5.7
2015-Feb-27 12:33N 22°18' E 114°09'1 0.3
2015-Feb-27 09:33N 22°17' E 114°10'6 3.8
2015-Feb-27 08:05N 22°15' E 114°04'610.5
2015-Feb-27 07:33N 22°17' E 114°10'0 0.0
2015-Feb-27 05:33N 22°17' E 114°10'3 2.6
2015-Feb-27 04:33N 22°19' E 114°12'0 0.0
2015-Feb-27 03:33N 22°19' E 114°12'0 0.0
2015-Feb-27 02:33N 22°19' E 114°12'3 2.7
2015-Feb-27 01:33N 22°20' E 114°09'2 1.1
2015-Feb-26 23:34N 22°17' E 114°09'0 0.0
2015-Feb-26 16:33N 22°18' E 114°09'4 3.2
2015-Feb-26 15:17N 22°17' E 114°05'4 5.7
2015-Feb-26 14:33N 22°17' E 114°10'5 4.3
2015-Feb-26 13:21N 22°16' E 114°04'4 4.8
2015-Feb-26 12:33N 22°17' E 114°08'1 0.5
2015-Feb-26 09:33N 22°17' E 114°10'0 0.0
2015-Feb-26 07:30N 22°17' E 114°10'4 3.2
2015-Feb-26 06:07N 22°16' E 114°05'4 8.1
2015-Feb-26 05:33N 22°17' E 114°10'2 2.4
2015-Feb-26 04:34N 22°19' E 114°12'0 0.0
2015-Feb-26 03:34N 22°19' E 114°12'0 0.0
2015-Feb-26 02:34N 22°19' E 114°12'3 2.7
2015-Feb-26 01:33N 22°17' E 114°09'4 3.3
2015-Feb-26 00:18N 22°16' E 114°05'4 6.0
2015-Feb-25 23:34N 22°17' E 114°10'0 0.0
2015-Feb-25 16:33N 22°17' E 114°09'5 4.1
2015-Feb-25 15:20N 22°16' E 114°04'5 6.7
2015-Feb-25 14:34N 22°17' E 114°10'6 4.6
2015-Feb-25 13:21N 22°15' E 114°04'4 5.2
2015-Feb-25 12:33N 22°18' E 114°08'2 0.5
2015-Feb-25 09:32N 22°17' E 114°10'0 0.0
2015-Feb-25 07:33N 22°17' E 114°10'4 3.0
2015-Feb-25 06:05N 22°16' E 114°05'5 8.7
2015-Feb-25 05:33N 22°17' E 114°10'3 2.5
2015-Feb-25 04:33N 22°19' E 114°12'0 0.0
2015-Feb-25 03:33N 22°19' E 114°12'0 0.0
2015-Feb-25 02:33N 22°19' E 114°12'3 2.9
2015-Feb-25 01:33N 22°20' E 114°09'2 1.2
2015-Feb-24 23:34N 22°17' E 114°10'0 0.0
2015-Feb-24 16:34N 22°17' E 114°09'5 3.9
2015-Feb-24 15:19N 22°16' E 114°04'5 6.7
2015-Feb-24 14:33N 22°17' E 114°10'3 2.3
2015-Feb-24 13:13N 22°17' E 114°06'3 3.9
2015-Feb-24 12:34N 22°17' E 114°09'1 0.2
2015-Feb-24 09:32N 22°17' E 114°10'0 0.0
2015-Feb-24 07:33N 22°17' E 114°10'0 0.0
2015-Feb-24 05:33N 22°17' E 114°10'2 2.5
2015-Feb-24 04:33N 22°20' E 114°09'0 0.0
2015-Feb-24 03:32N 22°20' E 114°09'0 0.0
2015-Feb-24 02:33N 22°20' E 114°09'0 0.0
2015-Feb-24 01:31N 22°20' E 114°09'2 1.2
2015-Feb-23 23:34N 22°17' E 114°10'0 0.0
2015-Feb-23 16:34N 22°17' E 114°09'6 5.1
2015-Feb-23 15:22N 22°15' E 114°03'6 7.6
2015-Feb-23 14:33N 22°17' E 114°10'5 4.4
2015-Feb-23 13:19N 22°16' E 114°04'4 5.6
2015-Feb-23 12:33N 22°17' E 114°08'1 0.5
2015-Feb-23 09:33N 22°17' E 114°10'5 3.2
2015-Feb-23 08:04N 22°16' E 114°05'5 9.3
2015-Feb-23 07:34N 22°17' E 114°10'0 0.1
2015-Feb-23 05:33N 22°17' E 114°10'2 2.5
2015-Feb-23 04:33N 22°19' E 114°12'0 0.0
2015-Feb-23 03:33N 22°19' E 114°12'0 0.0
2015-Feb-23 02:33N 22°19' E 114°12'3 2.9
2015-Feb-23 01:33N 22°20' E 114°09'2 1.2
2015-Feb-22 23:34N 22°17' E 114°10'0 0.0
2015-Feb-22 16:33N 22°17' E 114°09'6 4.7
2015-Feb-22 15:21N 22°15' E 114°04'6 7.3
2015-Feb-22 14:34N 22°17' E 114°10'5 4.4
2015-Feb-22 13:20N 22°16' E 114°04'5 6.8
2015-Feb-22 12:34N 22°17' E 114°09'6 1.7
2015-Feb-22 09:20N 22°15' E 114°04'6 7.1
2015-Feb-22 08:33N 22°17' E 114°10'7 4.8
2015-Feb-22 07:11N 22°15' E 114°03'710.5
2015-Feb-22 06:33N 22°17' E 114°10'6 4.8
2015-Feb-22 05:13N 22°15' E 114°03'6 9.9
2015-Feb-22 04:34N 22°17' E 114°10'6 4.1
2015-Feb-22 03:12N 22°15' E 114°04'5 8.0
2015-Feb-22 02:34N 22°18' E 114°09'5 3.8
2015-Feb-22 01:21N 22°16' E 114°04'5 6.0
2015-Feb-22 00:33N 22°18' E 114°09'1 0.6
2015-Feb-21 23:33N 22°17' E 114°10'0 0.0
2015-Feb-21 16:34N 22°17' E 114°10'5 4.4
2015-Feb-21 15:21N 22°16' E 114°04'5 6.6
2015-Feb-21 14:33N 22°17' E 114°10'6 5.2
2015-Feb-21 13:22N 22°15' E 114°03'6 7.5
2015-Feb-21 12:34N 22°17' E 114°10'5 4.2
2015-Feb-21 11:19N 22°16' E 114°04'5 6.7
2015-Feb-21 10:33N 22°17' E 114°10'5 4.0
2015-Feb-21 09:18N 22°16' E 114°04'2 2.4
2015-Feb-21 08:33N 22°17' E 114°06'2 1.5
2015-Feb-21 07:06N 22°16' E 114°04'510.0
2015-Feb-21 06:33N 22°17' E 114°10'5 3.5
2015-Feb-21 05:09N 22°16' E 114°04'5 8.3
2015-Feb-21 04:33N 22°17' E 114°09'5 3.6
2015-Feb-21 03:08N 22°16' E 114°04'5 9.1
2015-Feb-21 02:34N 22°17' E 114°09'6 4.6
2015-Feb-21 01:20N 22°15' E 114°04'6 7.5
2015-Feb-21 00:33N 22°19' E 114°09'1 1.4
2015-Feb-20 23:34N 22°17' E 114°10'0 0.0
2015-Feb-20 16:34N 22°18' E 114°09'5 4.3
2015-Feb-20 15:20N 22°16' E 114°04'5 6.8
2015-Feb-20 14:33N 22°17' E 114°10'6 5.0
2015-Feb-20 13:24N 22°15' E 114°04'6 6.7
2015-Feb-20 12:33N 22°17' E 114°10'0 0.0
2015-Feb-20 11:33N 22°17' E 114°10'0 0.0
2015-Feb-20 09:33N 22°17' E 114°10'6 2.3
2015-Feb-20 07:09N 22°15' E 114°04'6 9.3
2015-Feb-20 06:33N 22°17' E 114°10'6 3.9
2015-Feb-20 05:08N 22°15' E 114°04'610.0
2015-Feb-20 04:33N 22°17' E 114°10'5 3.6
2015-Feb-20 03:08N 22°16' E 114°04'6 9.7
2015-Feb-20 02:33N 22°17' E 114°10'2 2.2
2015-Feb-20 01:33N 22°19' E 114°12'0 0.2
2015-Feb-20 00:33N 22°19' E 114°12'2 2.5
2015-Feb-19 23:34N 22°17' E 114°10'0 0.0
2015-Feb-19 16:34N 22°18' E 114°09'5 4.2
2015-Feb-19 15:19N 22°16' E 114°04'5 6.9
2015-Feb-19 14:33N 22°17' E 114°10'5 4.3
2015-Feb-19 13:19N 22°16' E 114°04'5 5.9
2015-Feb-19 12:33N 22°18' E 114°09'4 3.5
2015-Feb-19 11:18N 22°16' E 114°04'7 9.3
2015-Feb-19 10:33N 22°18' E 114°11'1 1.2
2015-Feb-19 09:33N 22°19' E 114°12'3 2.9
2015-Feb-19 08:33N 22°17' E 114°09'6 4.2
2015-Feb-19 07:10N 22°15' E 114°04'6 9.7
2015-Feb-19 06:33N 22°17' E 114°09'6 4.3
2015-Feb-19 05:17N 22°15' E 114°04'5 7.6
2015-Feb-19 04:33N 22°17' E 114°09'6 4.5
2015-Feb-19 03:15N 22°15' E 114°04'6 8.4
2015-Feb-19 02:34N 22°17' E 114°09'6 4.8
2015-Feb-19 01:20N 22°15' E 114°04'6 7.6
2015-Feb-19 00:33N 22°18' E 114°09'1 0.9
2015-Feb-18 23:33N 22°17' E 114°10'0 0.0
2015-Feb-18 16:33N 22°17' E 114°10'6 4.9
2015-Feb-18 15:21N 22°15' E 114°04'6 7.5
2015-Feb-18 14:33N 22°17' E 114°10'5 4.3
2015-Feb-18 13:19N 22°16' E 114°04'5 6.3
2015-Feb-18 12:34N 22°18' E 114°09'1 0.2
2015-Feb-18 09:33N 22°17' E 114°10'0 0.0
2015-Feb-18 07:34N 22°17' E 114°10'6 3.9
2015-Feb-18 06:06N 22°15' E 114°04'  

Dump ship's entire track history